sensor_id;sensor_type;location;lat;lon;timestamp;P1;durP1;ratioP1;P2;durP2;ratioP2
48873;SDS011;66155;46.204;5.220;2024-02-26T00:02:13;2.50;;;2.40;;
48873;SDS011;66155;46.204;5.220;2024-02-26T00:07:14;2.85;;;2.40;;
48873;SDS011;66155;46.204;5.220;2024-02-26T00:12:15;2.30;;;2.20;;
48873;SDS011;66155;46.204;5.220;2024-02-26T00:17:15;2.30;;;2.20;;
48873;SDS011;66155;46.204;5.220;2024-02-26T00:22:16;2.10;;;1.67;;
48873;SDS011;66155;46.204;5.220;2024-02-26T00:27:16;2.38;;;2.28;;
48873;SDS011;66155;46.204;5.220;2024-02-26T00:32:17;2.25;;;2.10;;
48873;SDS011;66155;46.204;5.220;2024-02-26T00:37:17;2.20;;;2.10;;
48873;SDS011;66155;46.204;5.220;2024-02-26T00:42:17;2.20;;;2.10;;
48873;SDS011;66155;46.204;5.220;2024-02-26T00:47:18;2.33;;;2.22;;
48873;SDS011;66155;46.204;5.220;2024-02-26T00:52:18;2.30;;;2.20;;
48873;SDS011;66155;46.204;5.220;2024-02-26T00:57:19;2.03;;;1.92;;
48873;SDS011;66155;46.204;5.220;2024-02-26T01:02:19;2.38;;;2.28;;
48873;SDS011;66155;46.204;5.220;2024-02-26T01:07:20;2.20;;;2.10;;
48873;SDS011;66155;46.204;5.220;2024-02-26T01:12:20;2.22;;;2.13;;
48873;SDS011;66155;46.204;5.220;2024-02-26T01:17:21;2.35;;;2.25;;
48873;SDS011;66155;46.204;5.220;2024-02-26T01:22:21;2.15;;;2.05;;
48873;SDS011;66155;46.204;5.220;2024-02-26T01:27:22;2.00;;;1.90;;
48873;SDS011;66155;46.204;5.220;2024-02-26T01:32:26;2.90;;;2.70;;
48873;SDS011;66155;46.204;5.220;2024-02-26T01:37:27;2.50;;;2.40;;
48873;SDS011;66155;46.204;5.220;2024-02-26T01:42:32;2.50;;;2.30;;
48873;SDS011;66155;46.204;5.220;2024-02-26T01:47:32;2.15;;;2.05;;
48873;SDS011;66155;46.204;5.220;2024-02-26T01:52:33;2.45;;;2.35;;
48873;SDS011;66155;46.204;5.220;2024-02-26T01:57:34;2.30;;;2.10;;
48873;SDS011;66155;46.204;5.220;2024-02-26T02:02:35;2.20;;;2.10;;
48873;SDS011;66155;46.204;5.220;2024-02-26T02:07:36;2.20;;;2.10;;
48873;SDS011;66155;46.204;5.220;2024-02-26T02:12:37;2.13;;;2.03;;
48873;SDS011;66155;46.204;5.220;2024-02-26T02:17:40;2.20;;;2.10;;
48873;SDS011;66155;46.204;5.220;2024-02-26T02:22:40;1.90;;;1.80;;
48873;SDS011;66155;46.204;5.220;2024-02-26T02:27:41;2.40;;;2.30;;
48873;SDS011;66155;46.204;5.220;2024-02-26T02:32:43;2.85;;;2.30;;
48873;SDS011;66155;46.204;5.220;2024-02-26T02:37:44;2.20;;;2.10;;
48873;SDS011;66155;46.204;5.220;2024-02-26T02:42:44;2.58;;;2.47;;
48873;SDS011;66155;46.204;5.220;2024-02-26T02:47:44;2.17;;;2.08;;
48873;SDS011;66155;46.204;5.220;2024-02-26T02:52:45;2.40;;;2.20;;
48873;SDS011;66155;46.204;5.220;2024-02-26T02:57:45;2.03;;;1.92;;
48873;SDS011;66155;46.204;5.220;2024-02-26T03:02:46;2.75;;;2.47;;
48873;SDS011;66155;46.204;5.220;2024-02-26T03:07:46;2.30;;;2.20;;
48873;SDS011;66155;46.204;5.220;2024-02-26T03:12:47;2.45;;;2.25;;
48873;SDS011;66155;46.204;5.220;2024-02-26T03:17:47;2.33;;;2.22;;
48873;SDS011;66155;46.204;5.220;2024-02-26T03:22:48;2.60;;;2.50;;
48873;SDS011;66155;46.204;5.220;2024-02-26T03:27:48;2.30;;;2.20;;
48873;SDS011;66155;46.204;5.220;2024-02-26T03:32:48;2.10;;;2.00;;
48873;SDS011;66155;46.204;5.220;2024-02-26T03:37:49;2.05;;;1.90;;
48873;SDS011;66155;46.204;5.220;2024-02-26T03:42:51;5.13;;;4.93;;
48873;SDS011;66155;46.204;5.220;2024-02-26T03:47:54;2.55;;;2.10;;
48873;SDS011;66155;46.204;5.220;2024-02-26T03:52:54;1.98;;;1.88;;
48873;SDS011;66155;46.204;5.220;2024-02-26T03:57:55;2.10;;;2.00;;
48873;SDS011;66155;46.204;5.220;2024-02-26T04:02:55;2.60;;;2.40;;
48873;SDS011;66155;46.204;5.220;2024-02-26T04:07:55;1.70;;;1.70;;
48873;SDS011;66155;46.204;5.220;2024-02-26T04:12:56;3.05;;;2.85;;
48873;SDS011;66155;46.204;5.220;2024-02-26T04:17:56;2.22;;;2.13;;
48873;SDS011;66155;46.204;5.220;2024-02-26T04:22:57;2.00;;;1.90;;
48873;SDS011;66155;46.204;5.220;2024-02-26T04:27:57;2.08;;;1.98;;
48873;SDS011;66155;46.204;5.220;2024-02-26T04:32:58;2.78;;;2.63;;
48873;SDS011;66155;46.204;5.220;2024-02-26T04:37:58;2.20;;;2.10;;
48873;SDS011;66155;46.204;5.220;2024-02-26T04:42:58;2.40;;;2.30;;
48873;SDS011;66155;46.204;5.220;2024-02-26T04:47:59;2.70;;;2.60;;
48873;SDS011;66155;46.204;5.220;2024-02-26T04:52:59;2.40;;;2.30;;
48873;SDS011;66155;46.204;5.220;2024-02-26T04:58:00;2.20;;;2.10;;
48873;SDS011;66155;46.204;5.220;2024-02-26T05:03:00;2.00;;;1.90;;
48873;SDS011;66155;46.204;5.220;2024-02-26T05:08:01;2.50;;;2.40;;
48873;SDS011;66155;46.204;5.220;2024-02-26T05:13:03;2.00;;;1.90;;
48873;SDS011;66155;46.204;5.220;2024-02-26T05:18:03;2.30;;;2.20;;
48873;SDS011;66155;46.204;5.220;2024-02-26T05:23:04;2.30;;;2.20;;
48873;SDS011;66155;46.204;5.220;2024-02-26T05:28:05;2.40;;;2.30;;
48873;SDS011;66155;46.204;5.220;2024-02-26T05:33:06;3.20;;;2.90;;
48873;SDS011;66155;46.204;5.220;2024-02-26T05:38:06;2.78;;;2.08;;
48873;SDS011;66155;46.204;5.220;2024-02-26T05:43:06;2.28;;;2.10;;
48873;SDS011;66155;46.204;5.220;2024-02-26T05:48:07;2.50;;;2.40;;
48873;SDS011;66155;46.204;5.220;2024-02-26T05:53:07;2.60;;;2.50;;
48873;SDS011;66155;46.204;5.220;2024-02-26T05:58:08;2.60;;;2.50;;
48873;SDS011;66155;46.204;5.220;2024-02-26T06:03:08;2.35;;;2.25;;
48873;SDS011;66155;46.204;5.220;2024-02-26T06:08:09;2.50;;;2.40;;
48873;SDS011;66155;46.204;5.220;2024-02-26T06:13:09;2.60;;;2.50;;
48873;SDS011;66155;46.204;5.220;2024-02-26T06:18:10;3.03;;;2.83;;
48873;SDS011;66155;46.204;5.220;2024-02-26T06:23:10;2.30;;;2.20;;
48873;SDS011;66155;46.204;5.220;2024-02-26T06:28:11;2.45;;;2.35;;
48873;SDS011;66155;46.204;5.220;2024-02-26T06:33:11;2.20;;;2.10;;
48873;SDS011;66155;46.204;5.220;2024-02-26T06:38:12;2.60;;;2.50;;
48873;SDS011;66155;46.204;5.220;2024-02-26T06:43:13;2.53;;;2.42;;
48873;SDS011;66155;46.204;5.220;2024-02-26T06:48:14;2.80;;;2.70;;
48873;SDS011;66155;46.204;5.220;2024-02-26T06:53:14;2.67;;;2.58;;
48873;SDS011;66155;46.204;5.220;2024-02-26T06:58:15;2.40;;;2.30;;
48873;SDS011;66155;46.204;5.220;2024-02-26T07:03:15;2.95;;;2.75;;
48873;SDS011;66155;46.204;5.220;2024-02-26T07:08:16;2.50;;;2.40;;
48873;SDS011;66155;46.204;5.220;2024-02-26T07:13:16;2.53;;;2.33;;
48873;SDS011;66155;46.204;5.220;2024-02-26T07:18:16;2.58;;;2.47;;
48873;SDS011;66155;46.204;5.220;2024-02-26T07:23:17;2.65;;;2.55;;
48873;SDS011;66155;46.204;5.220;2024-02-26T07:28:17;2.63;;;2.53;;
48873;SDS011;66155;46.204;5.220;2024-02-26T07:33:19;2.10;;;2.00;;
48873;SDS011;66155;46.204;5.220;2024-02-26T07:38:19;2.50;;;2.40;;
48873;SDS011;66155;46.204;5.220;2024-02-26T07:43:19;3.13;;;3.03;;
48873;SDS011;66155;46.204;5.220;2024-02-26T07:48:20;2.47;;;2.38;;
48873;SDS011;66155;46.204;5.220;2024-02-26T07:53:20;2.40;;;2.30;;
48873;SDS011;66155;46.204;5.220;2024-02-26T07:58:20;2.40;;;2.30;;
48873;SDS011;66155;46.204;5.220;2024-02-26T08:03:21;2.30;;;2.20;;
48873;SDS011;66155;46.204;5.220;2024-02-26T08:08:22;2.93;;;2.83;;
48873;SDS011;66155;46.204;5.220;2024-02-26T08:13:22;2.70;;;2.60;;
48873;SDS011;66155;46.204;5.220;2024-02-26T08:18:24;3.35;;;3.25;;
48873;SDS011;66155;46.204;5.220;2024-02-26T08:23:24;3.10;;;2.80;;
48873;SDS011;66155;46.204;5.220;2024-02-26T08:28:26;3.03;;;2.92;;
48873;SDS011;66155;46.204;5.220;2024-02-26T08:33:26;2.67;;;2.58;;
48873;SDS011;66155;46.204;5.220;2024-02-26T08:38:27;2.67;;;2.58;;
48873;SDS011;66155;46.204;5.220;2024-02-26T08:43:27;2.97;;;2.67;;
48873;SDS011;66155;46.204;5.220;2024-02-26T08:48:27;3.80;;;3.60;;
48873;SDS011;66155;46.204;5.220;2024-02-26T08:53:28;3.10;;;2.90;;
48873;SDS011;66155;46.204;5.220;2024-02-26T08:58:28;3.40;;;3.20;;
48873;SDS011;66155;46.204;5.220;2024-02-26T09:03:28;3.33;;;3.15;;
48873;SDS011;66155;46.204;5.220;2024-02-26T09:08:29;3.40;;;3.20;;
48873;SDS011;66155;46.204;5.220;2024-02-26T09:13:29;3.40;;;3.20;;
48873;SDS011;66155;46.204;5.220;2024-02-26T09:18:30;3.10;;;3.00;;
48873;SDS011;66155;46.204;5.220;2024-02-26T09:23:30;3.13;;;3.03;;
48873;SDS011;66155;46.204;5.220;2024-02-26T09:28:30;4.47;;;4.28;;
48873;SDS011;66155;46.204;5.220;2024-02-26T09:33:35;3.45;;;3.25;;
48873;SDS011;66155;46.204;5.220;2024-02-26T09:38:35;3.33;;;3.13;;
48873;SDS011;66155;46.204;5.220;2024-02-26T09:43:38;3.08;;;2.88;;
48873;SDS011;66155;46.204;5.220;2024-02-26T09:48:42;3.80;;;3.60;;
48873;SDS011;66155;46.204;5.220;2024-02-26T09:53:44;3.70;;;3.50;;
48873;SDS011;66155;46.204;5.220;2024-02-26T09:58:47;3.40;;;3.20;;
48873;SDS011;66155;46.204;5.220;2024-02-26T10:03:57;3.60;;;3.40;;
48873;SDS011;66155;46.204;5.220;2024-02-26T10:08:58;3.22;;;3.13;;
48873;SDS011;66155;46.204;5.220;2024-02-26T10:13:59;3.65;;;3.45;;
48873;SDS011;66155;46.204;5.220;2024-02-26T10:19:00;3.63;;;3.42;;
48873;SDS011;66155;46.204;5.220;2024-02-26T10:24:00;3.35;;;3.20;;
48873;SDS011;66155;46.204;5.220;2024-02-26T10:29:00;3.30;;;3.10;;
48873;SDS011;66155;46.204;5.220;2024-02-26T10:34:01;3.63;;;3.42;;
48873;SDS011;66155;46.204;5.220;2024-02-26T10:39:03;5.50;;;5.20;;
48873;SDS011;66155;46.204;5.220;2024-02-26T10:44:05;3.90;;;3.70;;
48873;SDS011;66155;46.204;5.220;2024-02-26T10:49:05;3.70;;;3.50;;
48873;SDS011;66155;46.204;5.220;2024-02-26T10:54:07;3.50;;;3.30;;
48873;SDS011;66155;46.204;5.220;2024-02-26T10:59:10;3.55;;;3.35;;
48873;SDS011;66155;46.204;5.220;2024-02-26T11:04:11;3.80;;;3.60;;
48873;SDS011;66155;46.204;5.220;2024-02-26T11:09:14;3.67;;;3.47;;
48873;SDS011;66155;46.204;5.220;2024-02-26T11:14:16;3.50;;;3.30;;
48873;SDS011;66155;46.204;5.220;2024-02-26T11:19:16;3.95;;;3.65;;
48873;SDS011;66155;46.204;5.220;2024-02-26T11:24:18;3.80;;;3.60;;
48873;SDS011;66155;46.204;5.220;2024-02-26T11:29:20;3.58;;;3.38;;
48873;SDS011;66155;46.204;5.220;2024-02-26T11:34:22;3.70;;;3.40;;
48873;SDS011;66155;46.204;5.220;2024-02-26T11:39:24;4.40;;;3.40;;
48873;SDS011;66155;46.204;5.220;2024-02-26T11:44:29;3.50;;;3.30;;
48873;SDS011;66155;46.204;5.220;2024-02-26T11:49:30;3.70;;;3.50;;
48873;SDS011;66155;46.204;5.220;2024-02-26T11:59:44;3.88;;;3.67;;
48873;SDS011;66155;46.204;5.220;2024-02-26T12:04:45;4.70;;;4.40;;
48873;SDS011;66155;46.204;5.220;2024-02-26T12:09:46;4.15;;;3.95;;
48873;SDS011;66155;46.204;5.220;2024-02-26T12:14:53;5.60;;;5.30;;
48873;SDS011;66155;46.204;5.220;2024-02-26T12:19:55;4.07;;;3.70;;
48873;SDS011;66155;46.204;5.220;2024-02-26T12:25:09;3.92;;;3.72;;
48873;SDS011;66155;46.204;5.220;2024-02-26T12:30:10;4.13;;;3.92;;
48873;SDS011;66155;46.204;5.220;2024-02-26T12:35:11;4.30;;;4.10;;
48873;SDS011;66155;46.204;5.220;2024-02-26T12:40:11;4.45;;;4.25;;
48873;SDS011;66155;46.204;5.220;2024-02-26T12:45:13;4.70;;;4.50;;
48873;SDS011;66155;46.204;5.220;2024-02-26T12:50:15;4.30;;;4.10;;
48873;SDS011;66155;46.204;5.220;2024-02-26T12:55:19;4.55;;;4.30;;
48873;SDS011;66155;46.204;5.220;2024-02-26T13:00:22;4.75;;;4.35;;
48873;SDS011;66155;46.204;5.220;2024-02-26T13:05:26;4.37;;;3.97;;
48873;SDS011;66155;46.204;5.220;2024-02-26T13:10:26;4.00;;;3.80;;
48873;SDS011;66155;46.204;5.220;2024-02-26T13:15:27;5.10;;;4.75;;
48873;SDS011;66155;46.204;5.220;2024-02-26T13:20:28;4.70;;;4.40;;
48873;SDS011;66155;46.204;5.220;2024-02-26T13:25:30;5.78;;;5.47;;
48873;SDS011;66155;46.204;5.220;2024-02-26T13:30:30;5.60;;;5.30;;
48873;SDS011;66155;46.204;5.220;2024-02-26T13:35:31;5.00;;;4.80;;
48873;SDS011;66155;46.204;5.220;2024-02-26T13:40:33;4.68;;;4.47;;
48873;SDS011;66155;46.204;5.220;2024-02-26T13:45:34;5.47;;;5.25;;
48873;SDS011;66155;46.204;5.220;2024-02-26T13:50:36;5.28;;;4.97;;
48873;SDS011;66155;46.204;5.220;2024-02-26T13:55:36;5.17;;;4.77;;
48873;SDS011;66155;46.204;5.220;2024-02-26T14:00:36;5.80;;;5.50;;
48873;SDS011;66155;46.204;5.220;2024-02-26T14:05:37;5.90;;;5.50;;
48873;SDS011;66155;46.204;5.220;2024-02-26T14:10:37;5.27;;;4.97;;
48873;SDS011;66155;46.204;5.220;2024-02-26T14:15:38;5.90;;;5.60;;
48873;SDS011;66155;46.204;5.220;2024-02-26T14:20:39;6.78;;;6.35;;
48873;SDS011;66155;46.204;5.220;2024-02-26T14:25:40;6.40;;;6.10;;
48873;SDS011;66155;46.204;5.220;2024-02-26T14:30:41;6.28;;;5.97;;
48873;SDS011;66155;46.204;5.220;2024-02-26T14:35:41;5.40;;;5.10;;
48873;SDS011;66155;46.204;5.220;2024-02-26T14:40:41;6.33;;;6.00;;
48873;SDS011;66155;46.204;5.220;2024-02-26T14:45:42;6.80;;;6.50;;
48873;SDS011;66155;46.204;5.220;2024-02-26T14:50:43;6.78;;;6.38;;
48873;SDS011;66155;46.204;5.220;2024-02-26T14:55:43;6.40;;;6.00;;
48873;SDS011;66155;46.204;5.220;2024-02-26T15:00:44;6.30;;;6.00;;
48873;SDS011;66155;46.204;5.220;2024-02-26T15:05:44;5.93;;;5.43;;
48873;SDS011;66155;46.204;5.220;2024-02-26T15:10:44;5.90;;;5.50;;
48873;SDS011;66155;46.204;5.220;2024-02-26T15:15:48;6.28;;;5.88;;
48873;SDS011;66155;46.204;5.220;2024-02-26T15:20:48;7.13;;;6.80;;
48873;SDS011;66155;46.204;5.220;2024-02-26T15:25:49;6.10;;;5.50;;
48873;SDS011;66155;46.204;5.220;2024-02-26T15:30:49;5.43;;;5.13;;
48873;SDS011;66155;46.204;5.220;2024-02-26T15:35:49;7.33;;;6.93;;
48873;SDS011;66155;46.204;5.220;2024-02-26T15:40:50;5.53;;;5.22;;
48873;SDS011;66155;46.204;5.220;2024-02-26T15:45:50;5.88;;;5.57;;
48873;SDS011;66155;46.204;5.220;2024-02-26T15:50:51;5.40;;;5.10;;
48873;SDS011;66155;46.204;5.220;2024-02-26T15:55:51;5.97;;;5.67;;
48873;SDS011;66155;46.204;5.220;2024-02-26T16:00:51;4.63;;;4.43;;
48873;SDS011;66155;46.204;5.220;2024-02-26T16:05:52;5.25;;;5.05;;
48873;SDS011;66155;46.204;5.220;2024-02-26T16:10:53;4.50;;;4.30;;
48873;SDS011;66155;46.204;5.220;2024-02-26T16:16:01;6.37;;;5.97;;
48873;SDS011;66155;46.204;5.220;2024-02-26T16:21:04;4.85;;;4.65;;
48873;SDS011;66155;46.204;5.220;2024-02-26T16:26:04;4.80;;;4.50;;
48873;SDS011;66155;46.204;5.220;2024-02-26T16:31:05;4.20;;;4.00;;
48873;SDS011;66155;46.204;5.220;2024-02-26T16:36:05;4.87;;;4.57;;
48873;SDS011;66155;46.204;5.220;2024-02-26T16:41:06;5.20;;;4.80;;
48873;SDS011;66155;46.204;5.220;2024-02-26T16:46:06;4.32;;;4.13;;
48873;SDS011;66155;46.204;5.220;2024-02-26T16:51:07;5.53;;;5.13;;
48873;SDS011;66155;46.204;5.220;2024-02-26T16:56:10;4.90;;;4.60;;
48873;SDS011;66155;46.204;5.220;2024-02-26T17:01:11;5.63;;;5.22;;
48873;SDS011;66155;46.204;5.220;2024-02-26T17:06:11;4.70;;;4.45;;
48873;SDS011;66155;46.204;5.220;2024-02-26T17:11:12;5.13;;;4.73;;
48873;SDS011;66155;46.204;5.220;2024-02-26T17:16:12;4.60;;;4.20;;
48873;SDS011;66155;46.204;5.220;2024-02-26T17:21:16;5.33;;;4.97;;
48873;SDS011;66155;46.204;5.220;2024-02-26T17:26:17;4.60;;;4.30;;
48873;SDS011;66155;46.204;5.220;2024-02-26T17:31:18;3.95;;;3.75;;
48873;SDS011;66155;46.204;5.220;2024-02-26T17:36:19;5.50;;;5.10;;
48873;SDS011;66155;46.204;5.220;2024-02-26T17:41:20;3.70;;;3.40;;
48873;SDS011;66155;46.204;5.220;2024-02-26T17:46:20;5.10;;;3.90;;
48873;SDS011;66155;46.204;5.220;2024-02-26T17:51:21;4.80;;;3.70;;
48873;SDS011;66155;46.204;5.220;2024-02-26T17:56:22;4.10;;;3.40;;
48873;SDS011;66155;46.204;5.220;2024-02-26T18:01:22;3.80;;;3.50;;
48873;SDS011;66155;46.204;5.220;2024-02-26T18:06:23;3.88;;;3.58;;
48873;SDS011;66155;46.204;5.220;2024-02-26T18:11:24;3.55;;;3.35;;
48873;SDS011;66155;46.204;5.220;2024-02-26T18:16:24;4.10;;;3.80;;
48873;SDS011;66155;46.204;5.220;2024-02-26T18:21:25;4.15;;;3.88;;
48873;SDS011;66155;46.204;5.220;2024-02-26T18:26:26;3.70;;;3.40;;
48873;SDS011;66155;46.204;5.220;2024-02-26T18:31:27;4.80;;;4.30;;
48873;SDS011;66155;46.204;5.220;2024-02-26T18:36:28;4.80;;;3.80;;
48873;SDS011;66155;46.204;5.220;2024-02-26T18:41:29;4.63;;;4.23;;
48873;SDS011;66155;46.204;5.220;2024-02-26T18:46:29;4.80;;;4.30;;
48873;SDS011;66155;46.204;5.220;2024-02-26T18:51:29;5.13;;;4.40;;
48873;SDS011;66155;46.204;5.220;2024-02-26T18:56:30;4.77;;;4.37;;
48873;SDS011;66155;46.204;5.220;2024-02-26T19:01:30;3.88;;;3.67;;
48873;SDS011;66155;46.204;5.220;2024-02-26T19:06:34;5.72;;;4.53;;
48873;SDS011;66155;46.204;5.220;2024-02-26T19:11:35;6.10;;;4.90;;
48873;SDS011;66155;46.204;5.220;2024-02-26T19:16:36;6.53;;;5.07;;
48873;SDS011;66155;46.204;5.220;2024-02-26T19:21:36;7.68;;;4.65;;
48873;SDS011;66155;46.204;5.220;2024-02-26T19:26:39;8.25;;;5.00;;
48873;SDS011;66155;46.204;5.220;2024-02-26T19:31:40;5.53;;;4.75;;
48873;SDS011;66155;46.204;5.220;2024-02-26T19:36:40;5.07;;;4.32;;
48873;SDS011;66155;46.204;5.220;2024-02-26T19:41:41;5.13;;;4.65;;
48873;SDS011;66155;46.204;5.220;2024-02-26T19:46:41;5.97;;;4.47;;
48873;SDS011;66155;46.204;5.220;2024-02-26T19:51:42;5.10;;;4.60;;
48873;SDS011;66155;46.204;5.220;2024-02-26T19:56:43;6.47;;;5.85;;
48873;SDS011;66155;46.204;5.220;2024-02-26T20:01:44;7.13;;;5.53;;
48873;SDS011;66155;46.204;5.220;2024-02-26T20:06:45;6.38;;;5.30;;
48873;SDS011;66155;46.204;5.220;2024-02-26T20:11:48;7.35;;;5.13;;
48873;SDS011;66155;46.204;5.220;2024-02-26T20:16:48;7.00;;;5.07;;
48873;SDS011;66155;46.204;5.220;2024-02-26T20:21:48;6.65;;;5.38;;
48873;SDS011;66155;46.204;5.220;2024-02-26T20:26:49;8.32;;;5.25;;
48873;SDS011;66155;46.204;5.220;2024-02-26T20:31:49;5.70;;;5.05;;
48873;SDS011;66155;46.204;5.220;2024-02-26T20:36:50;7.45;;;6.15;;
48873;SDS011;66155;46.204;5.220;2024-02-26T20:41:50;7.97;;;6.03;;
48873;SDS011;66155;46.204;5.220;2024-02-26T20:46:51;6.00;;;5.38;;
48873;SDS011;66155;46.204;5.220;2024-02-26T20:51:59;7.18;;;5.30;;
48873;SDS011;66155;46.204;5.220;2024-02-26T20:56:59;9.68;;;5.65;;
48873;SDS011;66155;46.204;5.220;2024-02-26T21:02:02;6.72;;;5.68;;
48873;SDS011;66155;46.204;5.220;2024-02-26T21:07:03;7.63;;;5.75;;
48873;SDS011;66155;46.204;5.220;2024-02-26T21:12:04;7.22;;;5.40;;
48873;SDS011;66155;46.204;5.220;2024-02-26T21:17:05;5.88;;;5.20;;
48873;SDS011;66155;46.204;5.220;2024-02-26T21:22:05;7.20;;;4.87;;
48873;SDS011;66155;46.204;5.220;2024-02-26T21:27:06;7.10;;;4.93;;
48873;SDS011;66155;46.204;5.220;2024-02-26T21:32:06;8.10;;;6.82;;
48873;SDS011;66155;46.204;5.220;2024-02-26T21:37:07;5.43;;;4.32;;
48873;SDS011;66155;46.204;5.220;2024-02-26T21:42:08;5.50;;;4.50;;
48873;SDS011;66155;46.204;5.220;2024-02-26T21:47:08;6.70;;;4.93;;
48873;SDS011;66155;46.204;5.220;2024-02-26T21:52:11;6.32;;;5.07;;
48873;SDS011;66155;46.204;5.220;2024-02-26T21:57:12;5.40;;;4.90;;
48873;SDS011;66155;46.204;5.220;2024-02-26T22:02:13;5.03;;;4.53;;
48873;SDS011;66155;46.204;5.220;2024-02-26T22:07:13;5.07;;;4.22;;
48873;SDS011;66155;46.204;5.220;2024-02-26T22:12:13;6.47;;;5.25;;
48873;SDS011;66155;46.204;5.220;2024-02-26T22:17:14;6.25;;;4.70;;
48873;SDS011;66155;46.204;5.220;2024-02-26T22:22:14;4.72;;;4.30;;
48873;SDS011;66155;46.204;5.220;2024-02-26T22:27:15;6.07;;;4.85;;
48873;SDS011;66155;46.204;5.220;2024-02-26T22:32:15;6.53;;;4.68;;
48873;SDS011;66155;46.204;5.220;2024-02-26T22:37:16;6.83;;;5.33;;
48873;SDS011;66155;46.204;5.220;2024-02-26T22:42:16;5.32;;;4.82;;
48873;SDS011;66155;46.204;5.220;2024-02-26T22:47:17;7.63;;;4.72;;
48873;SDS011;66155;46.204;5.220;2024-02-26T22:52:17;6.20;;;5.03;;
48873;SDS011;66155;46.204;5.220;2024-02-26T22:57:17;7.07;;;4.82;;
48873;SDS011;66155;46.204;5.220;2024-02-26T23:02:18;6.95;;;5.07;;
48873;SDS011;66155;46.204;5.220;2024-02-26T23:07:18;6.47;;;3.80;;
48873;SDS011;66155;46.204;5.220;2024-02-26T23:12:19;5.00;;;4.20;;
48873;SDS011;66155;46.204;5.220;2024-02-26T23:17:19;8.88;;;5.65;;
48873;SDS011;66155;46.204;5.220;2024-02-26T23:22:20;7.68;;;4.72;;
48873;SDS011;66155;46.204;5.220;2024-02-26T23:27:20;6.47;;;5.13;;
48873;SDS011;66155;46.204;5.220;2024-02-26T23:32:20;8.73;;;5.30;;
48873;SDS011;66155;46.204;5.220;2024-02-26T23:37:21;6.97;;;5.30;;
48873;SDS011;66155;46.204;5.220;2024-02-26T23:42:21;5.78;;;4.70;;
48873;SDS011;66155;46.204;5.220;2024-02-26T23:47:22;5.47;;;4.43;;
48873;SDS011;66155;46.204;5.220;2024-02-26T23:52:23;5.25;;;4.18;;
48873;SDS011;66155;46.204;5.220;2024-02-26T23:57:23;5.28;;;4.30;;
